sensor_id;sensor_type;location;lat;lon;timestamp;P1;durP1;ratioP1;P2;durP2;ratioP2
38853;SDS011;24606;51.992;4.198;2022-09-27T00:02:47;6.13;;;0.97;;
38853;SDS011;24606;51.992;4.198;2022-09-27T00:07:49;5.70;;;1.35;;
38853;SDS011;24606;51.992;4.198;2022-09-27T00:12:51;8.93;;;1.00;;
38853;SDS011;24606;51.992;4.198;2022-09-27T00:17:54;4.70;;;1.23;;
38853;SDS011;24606;51.992;4.198;2022-09-27T00:22:56;8.55;;;1.80;;
38853;SDS011;24606;51.992;4.198;2022-09-27T00:27:58;11.37;;;2.20;;
38853;SDS011;24606;51.992;4.198;2022-09-27T00:33:03;8.18;;;1.10;;
38853;SDS011;24606;51.992;4.198;2022-09-27T00:38:04;12.82;;;1.67;;
38853;SDS011;24606;51.992;4.198;2022-09-27T00:43:09;8.73;;;1.33;;
38853;SDS011;24606;51.992;4.198;2022-09-27T00:48:19;15.73;;;1.45;;
38853;SDS011;24606;51.992;4.198;2022-09-27T00:53:26;11.63;;;1.30;;
38853;SDS011;24606;51.992;4.198;2022-09-27T00:58:32;10.48;;;1.30;;
38853;SDS011;24606;51.992;4.198;2022-09-27T01:03:39;8.30;;;1.83;;
38853;SDS011;24606;51.992;4.198;2022-09-27T01:08:45;21.02;;;1.67;;
38853;SDS011;24606;51.992;4.198;2022-09-27T01:13:51;22.10;;;2.30;;
38853;SDS011;24606;51.992;4.198;2022-09-27T01:19:06;5.25;;;0.68;;
38853;SDS011;24606;51.992;4.198;2022-09-27T01:30:18;2.92;;;0.60;;
38853;SDS011;24606;51.992;4.198;2022-09-27T01:35:23;9.88;;;1.50;;
38853;SDS011;24606;51.992;4.198;2022-09-27T01:40:32;9.32;;;0.93;;
38853;SDS011;24606;51.992;4.198;2022-09-27T01:45:41;5.53;;;0.73;;
38853;SDS011;24606;51.992;4.198;2022-09-27T01:50:47;3.63;;;0.50;;
38853;SDS011;24606;51.992;4.198;2022-09-27T01:55:53;7.95;;;1.13;;
38853;SDS011;24606;51.992;4.198;2022-09-27T02:00:58;6.82;;;0.63;;
38853;SDS011;24606;51.992;4.198;2022-09-27T02:06:01;7.68;;;1.23;;
38853;SDS011;24606;51.992;4.198;2022-09-27T02:11:08;5.88;;;0.82;;
38853;SDS011;24606;51.992;4.198;2022-09-27T02:16:16;3.90;;;1.30;;
38853;SDS011;24606;51.992;4.198;2022-09-27T02:21:24;6.00;;;0.82;;
38853;SDS011;24606;51.992;4.198;2022-09-27T02:26:32;3.30;;;1.20;;
38853;SDS011;24606;51.992;4.198;2022-09-27T02:31:42;5.15;;;0.85;;
38853;SDS011;24606;51.992;4.198;2022-09-27T02:36:43;2.22;;;0.70;;
38853;SDS011;24606;51.992;4.198;2022-09-27T02:41:46;2.67;;;0.63;;
38853;SDS011;24606;51.992;4.198;2022-09-27T02:47:10;7.40;;;1.13;;
38853;SDS011;24606;51.992;4.198;2022-09-27T02:52:26;2.85;;;0.40;;
38853;SDS011;24606;51.992;4.198;2022-09-27T02:57:36;7.70;;;1.05;;
38853;SDS011;24606;51.992;4.198;2022-09-27T03:02:52;1.58;;;0.50;;
38853;SDS011;24606;51.992;4.198;2022-09-27T03:07:59;7.90;;;1.27;;
38853;SDS011;24606;51.992;4.198;2022-09-27T03:13:01;5.70;;;0.85;;
38853;SDS011;24606;51.992;4.198;2022-09-27T03:18:05;2.28;;;0.65;;
38853;SDS011;24606;51.992;4.198;2022-09-27T03:23:07;4.78;;;0.85;;
38853;SDS011;24606;51.992;4.198;2022-09-27T03:28:09;8.40;;;1.47;;
38853;SDS011;24606;51.992;4.198;2022-09-27T03:33:12;4.63;;;1.13;;
38853;SDS011;24606;51.992;4.198;2022-09-27T03:38:14;3.60;;;0.60;;
38853;SDS011;24606;51.992;4.198;2022-09-27T03:43:16;2.77;;;0.50;;
38853;SDS011;24606;51.992;4.198;2022-09-27T03:48:19;8.53;;;0.77;;
38853;SDS011;24606;51.992;4.198;2022-09-27T03:53:21;8.15;;;0.60;;
38853;SDS011;24606;51.992;4.198;2022-09-27T03:58:24;3.35;;;0.65;;
38853;SDS011;24606;51.992;4.198;2022-09-27T04:03:27;7.57;;;0.97;;
38853;SDS011;24606;51.992;4.198;2022-09-27T04:08:28;6.25;;;0.80;;
38853;SDS011;24606;51.992;4.198;2022-09-27T04:13:30;1.83;;;0.43;;
38853;SDS011;24606;51.992;4.198;2022-09-27T04:18:34;4.25;;;0.80;;
38853;SDS011;24606;51.992;4.198;2022-09-27T04:23:35;4.05;;;0.80;;
38853;SDS011;24606;51.992;4.198;2022-09-27T04:28:37;5.87;;;1.13;;
38853;SDS011;24606;51.992;4.198;2022-09-27T04:33:41;10.60;;;0.95;;
38853;SDS011;24606;51.992;4.198;2022-09-27T04:38:43;13.75;;;0.98;;
38853;SDS011;24606;51.992;4.198;2022-09-27T04:43:45;3.27;;;0.40;;
38853;SDS011;24606;51.992;4.198;2022-09-27T04:48:48;1.30;;;0.30;;
38853;SDS011;24606;51.992;4.198;2022-09-27T04:53:50;4.25;;;0.45;;
38853;SDS011;24606;51.992;4.198;2022-09-27T04:58:51;4.93;;;0.87;;
38853;SDS011;24606;51.992;4.198;2022-09-27T05:03:55;6.57;;;0.95;;
38853;SDS011;24606;51.992;4.198;2022-09-27T05:08:57;3.08;;;0.68;;
38853;SDS011;24606;51.992;4.198;2022-09-27T05:13:59;2.07;;;0.53;;
38853;SDS011;24606;51.992;4.198;2022-09-27T05:19:02;8.17;;;0.53;;
38853;SDS011;24606;51.992;4.198;2022-09-27T05:24:04;7.28;;;0.88;;
38853;SDS011;24606;51.992;4.198;2022-09-27T05:29:06;2.27;;;0.40;;
38853;SDS011;24606;51.992;4.198;2022-09-27T05:34:10;6.13;;;0.82;;
38853;SDS011;24606;51.992;4.198;2022-09-27T05:39:12;5.75;;;1.00;;
38853;SDS011;24606;51.992;4.198;2022-09-27T05:44:15;1.40;;;0.32;;
38853;SDS011;24606;51.992;4.198;2022-09-27T05:49:19;5.43;;;0.75;;
38853;SDS011;24606;51.992;4.198;2022-09-27T05:54:21;1.50;;;0.60;;
38853;SDS011;24606;51.992;4.198;2022-09-27T05:59:22;6.00;;;0.93;;
38853;SDS011;24606;51.992;4.198;2022-09-27T06:04:26;5.30;;;1.17;;
38853;SDS011;24606;51.992;4.198;2022-09-27T06:09:28;5.15;;;0.57;;
38853;SDS011;24606;51.992;4.198;2022-09-27T06:14:29;5.13;;;0.83;;
38853;SDS011;24606;51.992;4.198;2022-09-27T06:19:35;2.70;;;1.05;;
38853;SDS011;24606;51.992;4.198;2022-09-27T06:24:37;3.35;;;1.25;;
38853;SDS011;24606;51.992;4.198;2022-09-27T06:29:38;5.90;;;1.02;;
38853;SDS011;24606;51.992;4.198;2022-09-27T06:34:42;3.93;;;1.07;;
38853;SDS011;24606;51.992;4.198;2022-09-27T06:39:43;5.68;;;1.10;;
38853;SDS011;24606;51.992;4.198;2022-09-27T06:44:48;3.45;;;1.25;;
38853;SDS011;24606;51.992;4.198;2022-09-27T06:49:51;1.90;;;0.60;;
38853;SDS011;24606;51.992;4.198;2022-09-27T06:54:53;3.97;;;0.77;;
38853;SDS011;24606;51.992;4.198;2022-09-27T06:59:54;5.83;;;0.80;;
38853;SDS011;24606;51.992;4.198;2022-09-27T07:05:15;1.92;;;1.05;;
38853;SDS011;24606;51.992;4.198;2022-09-27T07:10:17;3.05;;;0.90;;
38853;SDS011;24606;51.992;4.198;2022-09-27T07:15:19;2.70;;;0.85;;
38853;SDS011;24606;51.992;4.198;2022-09-27T07:20:23;5.35;;;1.23;;
38853;SDS011;24606;51.992;4.198;2022-09-27T07:25:25;4.07;;;1.48;;
38853;SDS011;24606;51.992;4.198;2022-09-27T07:30:27;7.97;;;1.93;;
38853;SDS011;24606;51.992;4.198;2022-09-27T07:35:31;5.93;;;0.93;;
38853;SDS011;24606;51.992;4.198;2022-09-27T07:40:34;4.18;;;0.88;;
38853;SDS011;24606;51.992;4.198;2022-09-27T07:45:37;8.25;;;2.92;;
38853;SDS011;24606;51.992;4.198;2022-09-27T07:50:40;4.55;;;2.42;;
38853;SDS011;24606;51.992;4.198;2022-09-27T07:55:42;8.52;;;2.10;;
38853;SDS011;24606;51.992;4.198;2022-09-27T08:00:44;5.07;;;1.00;;
38853;SDS011;24606;51.992;4.198;2022-09-27T08:05:48;7.30;;;1.27;;
38853;SDS011;24606;51.992;4.198;2022-09-27T08:10:49;6.72;;;0.85;;
38853;SDS011;24606;51.992;4.198;2022-09-27T08:15:51;4.60;;;0.82;;
38853;SDS011;24606;51.992;4.198;2022-09-27T08:20:56;7.85;;;0.65;;
38853;SDS011;24606;51.992;4.198;2022-09-27T08:25:58;8.30;;;1.00;;
38853;SDS011;24606;51.992;4.198;2022-09-27T08:31:00;8.18;;;1.00;;
38853;SDS011;24606;51.992;4.198;2022-09-27T08:36:03;4.17;;;0.70;;
38853;SDS011;24606;51.992;4.198;2022-09-27T08:41:11;5.10;;;0.70;;
38853;SDS011;24606;51.992;4.198;2022-09-27T08:46:24;4.60;;;0.85;;
38853;SDS011;24606;51.992;4.198;2022-09-27T08:51:34;3.38;;;0.90;;
38853;SDS011;24606;51.992;4.198;2022-09-27T08:56:38;4.28;;;0.93;;
38853;SDS011;24606;51.992;4.198;2022-09-27T09:01:40;6.50;;;1.45;;
38853;SDS011;24606;51.992;4.198;2022-09-27T09:06:46;6.45;;;0.75;;
38853;SDS011;24606;51.992;4.198;2022-09-27T09:11:58;6.22;;;0.93;;
38853;SDS011;24606;51.992;4.198;2022-09-27T09:17:27;5.45;;;0.93;;
38853;SDS011;24606;51.992;4.198;2022-09-27T09:22:49;6.57;;;1.33;;
38853;SDS011;24606;51.992;4.198;2022-09-27T09:28:11;6.65;;;2.28;;
38853;SDS011;24606;51.992;4.198;2022-09-27T09:33:27;6.13;;;3.38;;
38853;SDS011;24606;51.992;4.198;2022-09-27T09:38:36;4.82;;;1.80;;
38853;SDS011;24606;51.992;4.198;2022-09-27T09:43:41;8.98;;;2.30;;
38853;SDS011;24606;51.992;4.198;2022-09-27T09:48:49;4.85;;;2.28;;
38853;SDS011;24606;51.992;4.198;2022-09-27T09:53:59;5.57;;;2.20;;
38853;SDS011;24606;51.992;4.198;2022-09-27T09:59:08;4.38;;;1.70;;
38853;SDS011;24606;51.992;4.198;2022-09-27T10:04:17;3.08;;;1.10;;
38853;SDS011;24606;51.992;4.198;2022-09-27T10:09:23;2.10;;;1.15;;
38853;SDS011;24606;51.992;4.198;2022-09-27T10:14:27;2.75;;;0.93;;
38853;SDS011;24606;51.992;4.198;2022-09-27T10:19:29;2.25;;;0.93;;
38853;SDS011;24606;51.992;4.198;2022-09-27T10:24:36;2.10;;;0.80;;
38853;SDS011;24606;51.992;4.198;2022-09-27T10:29:55;15.45;;;1.88;;
38853;SDS011;24606;51.992;4.198;2022-09-27T10:40:37;11.10;;;1.90;;
38853;SDS011;24606;51.992;4.198;2022-09-27T10:45:39;7.20;;;1.40;;
38853;SDS011;24606;51.992;4.198;2022-09-27T10:50:41;8.90;;;3.00;;
38853;SDS011;24606;51.992;4.198;2022-09-27T10:55:59;10.15;;;3.50;;
38853;SDS011;24606;51.992;4.198;2022-09-27T11:01:03;5.90;;;2.75;;
38853;SDS011;24606;51.992;4.198;2022-09-27T11:06:17;9.18;;;1.38;;
38853;SDS011;24606;51.992;4.198;2022-09-27T11:11:22;7.40;;;1.25;;
38853;SDS011;24606;51.992;4.198;2022-09-27T11:16:29;12.27;;;1.08;;
38853;SDS011;24606;51.992;4.198;2022-09-27T11:21:45;6.88;;;1.95;;
38853;SDS011;24606;51.992;4.198;2022-09-27T11:26:57;14.68;;;1.55;;
38853;SDS011;24606;51.992;4.198;2022-09-27T11:32:12;11.23;;;1.92;;
38853;SDS011;24606;51.992;4.198;2022-09-27T11:37:23;7.80;;;1.40;;
38853;SDS011;24606;51.992;4.198;2022-09-27T11:48:07;8.55;;;3.95;;
38853;SDS011;24606;51.992;4.198;2022-09-27T11:53:20;13.52;;;6.05;;
38853;SDS011;24606;51.992;4.198;2022-09-27T11:58:43;12.18;;;3.78;;
38853;SDS011;24606;51.992;4.198;2022-09-27T12:04:18;6.90;;;0.93;;
38853;SDS011;24606;51.992;4.198;2022-09-27T12:09:31;9.95;;;4.80;;
38853;SDS011;24606;51.992;4.198;2022-09-27T12:14:37;12.18;;;4.45;;
38853;SDS011;24606;51.992;4.198;2022-09-27T12:19:44;4.65;;;2.08;;
38853;SDS011;24606;51.992;4.198;2022-09-27T12:24:50;7.25;;;2.30;;
38853;SDS011;24606;51.992;4.198;2022-09-27T12:29:53;11.40;;;3.60;;
38853;SDS011;24606;51.992;4.198;2022-09-27T12:35:04;4.95;;;1.42;;
38853;SDS011;24606;51.992;4.198;2022-09-27T12:40:13;9.50;;;1.83;;
38853;SDS011;24606;51.992;4.198;2022-09-27T12:45:19;4.70;;;1.73;;
38853;SDS011;24606;51.992;4.198;2022-09-27T12:50:33;8.13;;;1.48;;
38853;SDS011;24606;51.992;4.198;2022-09-27T12:55:56;9.05;;;1.55;;
38853;SDS011;24606;51.992;4.198;2022-09-27T13:01:10;5.65;;;1.38;;
38853;SDS011;24606;51.992;4.198;2022-09-27T13:11:52;9.32;;;1.77;;
38853;SDS011;24606;51.992;4.198;2022-09-27T13:17:01;8.00;;;2.33;;
38853;SDS011;24606;51.992;4.198;2022-09-27T13:22:04;12.87;;;1.30;;
38853;SDS011;24606;51.992;4.198;2022-09-27T13:27:34;5.95;;;1.65;;
38853;SDS011;24606;51.992;4.198;2022-09-27T13:32:37;9.20;;;1.42;;
38853;SDS011;24606;51.992;4.198;2022-09-27T13:37:54;5.53;;;1.55;;
38853;SDS011;24606;51.992;4.198;2022-09-27T13:43:04;12.98;;;1.35;;
38853;SDS011;24606;51.992;4.198;2022-09-27T13:48:29;7.50;;;1.75;;
38853;SDS011;24606;51.992;4.198;2022-09-27T13:53:53;5.80;;;1.58;;
38853;SDS011;24606;51.992;4.198;2022-09-27T13:58:57;8.55;;;1.63;;
38853;SDS011;24606;51.992;4.198;2022-09-27T14:04:01;9.52;;;1.23;;
38853;SDS011;24606;51.992;4.198;2022-09-27T14:09:07;5.28;;;1.42;;
38853;SDS011;24606;51.992;4.198;2022-09-27T14:14:19;5.40;;;1.42;;
38853;SDS011;24606;51.992;4.198;2022-09-27T14:19:25;6.47;;;1.40;;
38853;SDS011;24606;51.992;4.198;2022-09-27T14:24:30;7.53;;;2.00;;
38853;SDS011;24606;51.992;4.198;2022-09-27T14:29:44;6.85;;;3.28;;
38853;SDS011;24606;51.992;4.198;2022-09-27T14:35:01;7.63;;;2.35;;
38853;SDS011;24606;51.992;4.198;2022-09-27T14:40:17;5.68;;;1.98;;
38853;SDS011;24606;51.992;4.198;2022-09-27T14:45:21;7.82;;;1.25;;
38853;SDS011;24606;51.992;4.198;2022-09-27T14:50:28;7.05;;;1.73;;
38853;SDS011;24606;51.992;4.198;2022-09-27T14:55:32;8.70;;;1.67;;
38853;SDS011;24606;51.992;4.198;2022-09-27T15:00:34;6.45;;;1.75;;
38853;SDS011;24606;51.992;4.198;2022-09-27T15:05:36;3.00;;;1.35;;
38853;SDS011;24606;51.992;4.198;2022-09-27T15:10:43;5.90;;;1.00;;
38853;SDS011;24606;51.992;4.198;2022-09-27T15:15:45;4.45;;;1.40;;
38853;SDS011;24606;51.992;4.198;2022-09-27T15:20:51;6.00;;;2.03;;
38853;SDS011;24606;51.992;4.198;2022-09-27T15:25:59;5.35;;;1.25;;
38853;SDS011;24606;51.992;4.198;2022-09-27T15:31:06;5.38;;;1.00;;
38853;SDS011;24606;51.992;4.198;2022-09-27T15:36:09;4.00;;;1.00;;
38853;SDS011;24606;51.992;4.198;2022-09-27T15:41:16;9.68;;;1.38;;
38853;SDS011;24606;51.992;4.198;2022-09-27T15:46:28;5.63;;;1.63;;
38853;SDS011;24606;51.992;4.198;2022-09-27T15:51:38;10.48;;;1.67;;
38853;SDS011;24606;51.992;4.198;2022-09-27T15:56:42;4.35;;;0.95;;
38853;SDS011;24606;51.992;4.198;2022-09-27T16:01:44;8.45;;;1.02;;
38853;SDS011;24606;51.992;4.198;2022-09-27T16:06:46;5.00;;;1.00;;
38853;SDS011;24606;51.992;4.198;2022-09-27T16:11:50;2.10;;;0.80;;
38853;SDS011;24606;51.992;4.198;2022-09-27T16:16:53;3.75;;;1.40;;
38853;SDS011;24606;51.992;4.198;2022-09-27T16:21:57;5.18;;;1.25;;
38853;SDS011;24606;51.992;4.198;2022-09-27T16:27:03;5.15;;;0.90;;
38853;SDS011;24606;51.992;4.198;2022-09-27T16:32:05;2.72;;;0.63;;
38853;SDS011;24606;51.992;4.198;2022-09-27T16:37:07;2.47;;;1.58;;
38853;SDS011;24606;51.992;4.198;2022-09-27T16:47:14;2.38;;;0.77;;
38853;SDS011;24606;51.992;4.198;2022-09-27T16:52:16;2.67;;;1.00;;
38853;SDS011;24606;51.992;4.198;2022-09-27T16:57:19;1.90;;;0.70;;
38853;SDS011;24606;51.992;4.198;2022-09-27T17:02:21;5.25;;;0.80;;
38853;SDS011;24606;51.992;4.198;2022-09-27T17:07:23;2.78;;;0.50;;
38853;SDS011;24606;51.992;4.198;2022-09-27T17:12:26;1.90;;;0.90;;
38853;SDS011;24606;51.992;4.198;2022-09-27T17:17:28;5.03;;;0.73;;
38853;SDS011;24606;51.992;4.198;2022-09-27T17:22:30;4.97;;;1.10;;
38853;SDS011;24606;51.992;4.198;2022-09-27T17:27:34;2.78;;;0.80;;
38853;SDS011;24606;51.992;4.198;2022-09-27T17:32:35;4.22;;;1.23;;
38853;SDS011;24606;51.992;4.198;2022-09-27T17:37:38;4.13;;;1.10;;
38853;SDS011;24606;51.992;4.198;2022-09-27T17:42:41;6.20;;;2.72;;
38853;SDS011;24606;51.992;4.198;2022-09-27T17:47:44;4.28;;;2.08;;
38853;SDS011;24606;51.992;4.198;2022-09-27T17:53:15;4.55;;;1.40;;
38853;SDS011;24606;51.992;4.198;2022-09-27T17:58:18;2.70;;;0.90;;
38853;SDS011;24606;51.992;4.198;2022-09-27T18:03:21;2.42;;;0.93;;
38853;SDS011;24606;51.992;4.198;2022-09-27T18:08:22;1.83;;;1.05;;
38853;SDS011;24606;51.992;4.198;2022-09-27T18:13:30;3.30;;;0.68;;
38853;SDS011;24606;51.992;4.198;2022-09-27T18:18:40;3.15;;;0.90;;
38853;SDS011;24606;51.992;4.198;2022-09-27T18:23:43;2.83;;;0.98;;
38853;SDS011;24606;51.992;4.198;2022-09-27T18:28:46;2.35;;;0.65;;
38853;SDS011;24606;51.992;4.198;2022-09-27T18:33:48;2.53;;;0.77;;
38853;SDS011;24606;51.992;4.198;2022-09-27T18:38:51;1.98;;;0.98;;
38853;SDS011;24606;51.992;4.198;2022-09-27T18:43:56;2.33;;;0.55;;
38853;SDS011;24606;51.992;4.198;2022-09-27T18:49:00;3.58;;;1.00;;
38853;SDS011;24606;51.992;4.198;2022-09-27T18:54:03;1.55;;;0.68;;
38853;SDS011;24606;51.992;4.198;2022-09-27T18:59:08;2.90;;;0.80;;
38853;SDS011;24606;51.992;4.198;2022-09-27T19:04:12;3.63;;;1.13;;
38853;SDS011;24606;51.992;4.198;2022-09-27T19:09:14;7.47;;;0.80;;
38853;SDS011;24606;51.992;4.198;2022-09-27T19:14:18;1.65;;;0.70;;
38853;SDS011;24606;51.992;4.198;2022-09-27T19:19:21;2.35;;;0.70;;
38853;SDS011;24606;51.992;4.198;2022-09-27T19:24:23;3.97;;;0.60;;
38853;SDS011;24606;51.992;4.198;2022-09-27T19:29:26;2.60;;;0.68;;
38853;SDS011;24606;51.992;4.198;2022-09-27T19:34:28;1.10;;;0.60;;
38853;SDS011;24606;51.992;4.198;2022-09-27T19:39:30;3.38;;;0.85;;
38853;SDS011;24606;51.992;4.198;2022-09-27T19:44:33;5.28;;;1.67;;
38853;SDS011;24606;51.992;4.198;2022-09-27T19:49:35;3.67;;;1.83;;
38853;SDS011;24606;51.992;4.198;2022-09-27T19:54:37;2.53;;;1.23;;
38853;SDS011;24606;51.992;4.198;2022-09-27T19:59:40;3.38;;;0.63;;
38853;SDS011;24606;51.992;4.198;2022-09-27T20:04:42;3.88;;;0.65;;
38853;SDS011;24606;51.992;4.198;2022-09-27T20:09:44;2.78;;;1.00;;
38853;SDS011;24606;51.992;4.198;2022-09-27T20:14:48;4.90;;;1.10;;
38853;SDS011;24606;51.992;4.198;2022-09-27T20:19:50;2.53;;;0.73;;
38853;SDS011;24606;51.992;4.198;2022-09-27T20:24:52;2.80;;;0.77;;
38853;SDS011;24606;51.992;4.198;2022-09-27T20:29:55;2.87;;;0.77;;
38853;SDS011;24606;51.992;4.198;2022-09-27T20:34:57;1.75;;;0.47;;
38853;SDS011;24606;51.992;4.198;2022-09-27T20:39:59;1.70;;;0.50;;
38853;SDS011;24606;51.992;4.198;2022-09-27T20:45:04;2.63;;;1.00;;
38853;SDS011;24606;51.992;4.198;2022-09-27T20:50:06;4.15;;;1.10;;
38853;SDS011;24606;51.992;4.198;2022-09-27T20:55:08;2.33;;;1.23;;
38853;SDS011;24606;51.992;4.198;2022-09-27T21:05:14;3.20;;;0.90;;
38853;SDS011;24606;51.992;4.198;2022-09-27T21:10:16;0.70;;;0.45;;
38853;SDS011;24606;51.992;4.198;2022-09-27T21:15:19;1.98;;;1.05;;
38853;SDS011;24606;51.992;4.198;2022-09-27T21:20:21;1.23;;;0.63;;
38853;SDS011;24606;51.992;4.198;2022-09-27T21:25:23;1.02;;;0.43;;
38853;SDS011;24606;51.992;4.198;2022-09-27T21:30:26;4.82;;;0.57;;
38853;SDS011;24606;51.992;4.198;2022-09-27T21:35:30;0.50;;;0.30;;
38853;SDS011;24606;51.992;4.198;2022-09-27T21:40:31;0.65;;;0.32;;
38853;SDS011;24606;51.992;4.198;2022-09-27T21:45:35;1.95;;;0.52;;
38853;SDS011;24606;51.992;4.198;2022-09-27T21:50:37;4.50;;;0.65;;
38853;SDS011;24606;51.992;4.198;2022-09-27T21:55:38;0.60;;;0.30;;
38853;SDS011;24606;51.992;4.198;2022-09-27T22:00:41;3.70;;;0.40;;
38853;SDS011;24606;51.992;4.198;2022-09-27T22:05:43;3.20;;;0.45;;
38853;SDS011;24606;51.992;4.198;2022-09-27T22:10:46;1.65;;;0.52;;
38853;SDS011;24606;51.992;4.198;2022-09-27T22:15:49;1.90;;;1.00;;
38853;SDS011;24606;51.992;4.198;2022-09-27T22:20:51;0.95;;;0.60;;
38853;SDS011;24606;51.992;4.198;2022-09-27T22:25:53;1.83;;;0.82;;
38853;SDS011;24606;51.992;4.198;2022-09-27T22:30:56;0.38;;;0.32;;
38853;SDS011;24606;51.992;4.198;2022-09-27T22:36:04;1.75;;;0.40;;
38853;SDS011;24606;51.992;4.198;2022-09-27T22:46:09;0.90;;;0.50;;
38853;SDS011;24606;51.992;4.198;2022-09-27T22:51:12;0.57;;;0.30;;
38853;SDS011;24606;51.992;4.198;2022-09-27T23:01:18;1.67;;;0.35;;
38853;SDS011;24606;51.992;4.198;2022-09-27T23:06:22;0.85;;;0.68;;
38853;SDS011;24606;51.992;4.198;2022-09-27T23:11:24;1.40;;;0.50;;
38853;SDS011;24606;51.992;4.198;2022-09-27T23:16:27;0.88;;;0.43;;
38853;SDS011;24606;51.992;4.198;2022-09-27T23:21:29;1.13;;;0.45;;
38853;SDS011;24606;51.992;4.198;2022-09-27T23:26:31;0.30;;;0.30;;
38853;SDS011;24606;51.992;4.198;2022-09-27T23:31:34;1.08;;;0.40;;
38853;SDS011;24606;51.992;4.198;2022-09-27T23:36:36;1.75;;;0.30;;
38853;SDS011;24606;51.992;4.198;2022-09-27T23:41:38;4.85;;;0.52;;
38853;SDS011;24606;51.992;4.198;2022-09-27T23:46:42;0.73;;;0.30;;
38853;SDS011;24606;51.992;4.198;2022-09-27T23:51:44;2.13;;;0.40;;
38853;SDS011;24606;51.992;4.198;2022-09-27T23:56:46;0.82;;;0.40;;
